sensor_id;sensor_type;location;lat;lon;timestamp;P1;durP1;ratioP1;P2;durP2;ratioP2
8895;SDS011;4484;48.928;10.066;2022-07-22T00:02:00;3.20;;;2.97;;
8895;SDS011;4484;48.928;10.066;2022-07-22T00:04:27;4.20;;;3.80;;
8895;SDS011;4484;48.928;10.066;2022-07-22T00:06:54;4.80;;;3.97;;
8895;SDS011;4484;48.928;10.066;2022-07-22T00:09:21;4.73;;;3.60;;
8895;SDS011;4484;48.928;10.066;2022-07-22T00:11:48;3.57;;;3.27;;
8895;SDS011;4484;48.928;10.066;2022-07-22T00:14:15;3.67;;;3.23;;
8895;SDS011;4484;48.928;10.066;2022-07-22T00:16:42;3.53;;;3.23;;
8895;SDS011;4484;48.928;10.066;2022-07-22T00:19:09;3.43;;;3.13;;
8895;SDS011;4484;48.928;10.066;2022-07-22T00:21:36;3.77;;;3.47;;
8895;SDS011;4484;48.928;10.066;2022-07-22T00:24:03;3.63;;;3.33;;
8895;SDS011;4484;48.928;10.066;2022-07-22T00:26:30;3.67;;;3.33;;
8895;SDS011;4484;48.928;10.066;2022-07-22T00:28:57;4.70;;;3.47;;
8895;SDS011;4484;48.928;10.066;2022-07-22T00:31:26;3.97;;;3.60;;
8895;SDS011;4484;48.928;10.066;2022-07-22T00:33:53;3.97;;;3.53;;
8895;SDS011;4484;48.928;10.066;2022-07-22T00:36:20;3.67;;;3.37;;
8895;SDS011;4484;48.928;10.066;2022-07-22T00:38:46;3.43;;;3.13;;
8895;SDS011;4484;48.928;10.066;2022-07-22T00:41:13;3.73;;;3.33;;
8895;SDS011;4484;48.928;10.066;2022-07-22T00:43:50;3.37;;;3.07;;
8895;SDS011;4484;48.928;10.066;2022-07-22T00:46:20;3.40;;;3.07;;
8895;SDS011;4484;48.928;10.066;2022-07-22T00:48:47;3.43;;;2.80;;
8895;SDS011;4484;48.928;10.066;2022-07-22T00:51:14;3.80;;;3.43;;
8895;SDS011;4484;48.928;10.066;2022-07-22T00:53:43;4.03;;;3.63;;
8895;SDS011;4484;48.928;10.066;2022-07-22T00:56:11;3.53;;;3.20;;
8895;SDS011;4484;48.928;10.066;2022-07-22T00:58:39;3.43;;;3.13;;
8895;SDS011;4484;48.928;10.066;2022-07-22T01:01:06;3.20;;;3.00;;
8895;SDS011;4484;48.928;10.066;2022-07-22T01:03:33;3.07;;;2.87;;
8895;SDS011;4484;48.928;10.066;2022-07-22T01:06:00;3.50;;;3.20;;
8895;SDS011;4484;48.928;10.066;2022-07-22T01:08:27;3.33;;;3.07;;
8895;SDS011;4484;48.928;10.066;2022-07-22T01:10:54;4.00;;;3.40;;
8895;SDS011;4484;48.928;10.066;2022-07-22T01:13:25;3.40;;;3.10;;
8895;SDS011;4484;48.928;10.066;2022-07-22T01:15:53;3.77;;;3.10;;
8895;SDS011;4484;48.928;10.066;2022-07-22T01:18:20;3.00;;;2.80;;
8895;SDS011;4484;48.928;10.066;2022-07-22T01:20:47;3.13;;;2.93;;
8895;SDS011;4484;48.928;10.066;2022-07-22T01:23:15;3.43;;;3.00;;
8895;SDS011;4484;48.928;10.066;2022-07-22T01:25:41;3.20;;;2.80;;
8895;SDS011;4484;48.928;10.066;2022-07-22T01:28:08;3.17;;;2.80;;
8895;SDS011;4484;48.928;10.066;2022-07-22T01:30:35;3.20;;;2.90;;
8895;SDS011;4484;48.928;10.066;2022-07-22T01:33:03;3.53;;;3.17;;
8895;SDS011;4484;48.928;10.066;2022-07-22T01:35:30;3.23;;;2.87;;
8895;SDS011;4484;48.928;10.066;2022-07-22T01:37:57;3.03;;;2.70;;
8895;SDS011;4484;48.928;10.066;2022-07-22T01:40:24;4.63;;;3.43;;
8895;SDS011;4484;48.928;10.066;2022-07-22T01:42:51;3.50;;;3.17;;
8895;SDS011;4484;48.928;10.066;2022-07-22T01:45:17;3.20;;;2.90;;
8895;SDS011;4484;48.928;10.066;2022-07-22T01:47:44;3.23;;;2.93;;
8895;SDS011;4484;48.928;10.066;2022-07-22T01:50:11;3.70;;;3.40;;
8895;SDS011;4484;48.928;10.066;2022-07-22T01:52:39;3.47;;;3.13;;
8895;SDS011;4484;48.928;10.066;2022-07-22T01:55:06;2.83;;;2.57;;
8895;SDS011;4484;48.928;10.066;2022-07-22T01:57:33;3.90;;;3.47;;
8895;SDS011;4484;48.928;10.066;2022-07-22T02:00:12;3.33;;;3.03;;
8895;SDS011;4484;48.928;10.066;2022-07-22T02:02:43;3.50;;;3.20;;
8895;SDS011;4484;48.928;10.066;2022-07-22T02:05:10;3.20;;;2.90;;
8895;SDS011;4484;48.928;10.066;2022-07-22T02:07:38;3.83;;;3.47;;
8895;SDS011;4484;48.928;10.066;2022-07-22T02:10:05;3.43;;;2.77;;
8895;SDS011;4484;48.928;10.066;2022-07-22T02:12:34;3.80;;;3.20;;
8895;SDS011;4484;48.928;10.066;2022-07-22T02:15:02;3.47;;;3.17;;
8895;SDS011;4484;48.928;10.066;2022-07-22T02:17:31;3.40;;;3.10;;
8895;SDS011;4484;48.928;10.066;2022-07-22T02:20:00;3.87;;;3.53;;
8895;SDS011;4484;48.928;10.066;2022-07-22T02:22:28;4.70;;;3.63;;
8895;SDS011;4484;48.928;10.066;2022-07-22T02:24:55;3.63;;;3.33;;
8895;SDS011;4484;48.928;10.066;2022-07-22T02:27:22;2.97;;;2.77;;
8895;SDS011;4484;48.928;10.066;2022-07-22T02:29:50;4.13;;;3.73;;
8895;SDS011;4484;48.928;10.066;2022-07-22T02:32:16;3.60;;;3.30;;
8895;SDS011;4484;48.928;10.066;2022-07-22T02:34:43;3.53;;;3.20;;
8895;SDS011;4484;48.928;10.066;2022-07-22T02:37:11;3.50;;;3.20;;
8895;SDS011;4484;48.928;10.066;2022-07-22T02:39:38;3.40;;;3.10;;
8895;SDS011;4484;48.928;10.066;2022-07-22T02:42:05;4.03;;;3.63;;
8895;SDS011;4484;48.928;10.066;2022-07-22T02:44:32;3.90;;;3.60;;
8895;SDS011;4484;48.928;10.066;2022-07-22T02:46:59;4.03;;;3.63;;
8895;SDS011;4484;48.928;10.066;2022-07-22T02:49:31;4.17;;;3.63;;
8895;SDS011;4484;48.928;10.066;2022-07-22T02:51:58;4.17;;;3.77;;
8895;SDS011;4484;48.928;10.066;2022-07-22T02:54:25;4.27;;;3.87;;
8895;SDS011;4484;48.928;10.066;2022-07-22T02:56:52;3.33;;;3.03;;
8895;SDS011;4484;48.928;10.066;2022-07-22T02:59:19;4.57;;;3.50;;
8895;SDS011;4484;48.928;10.066;2022-07-22T03:01:46;6.57;;;4.00;;
8895;SDS011;4484;48.928;10.066;2022-07-22T03:04:13;7.13;;;3.83;;
8895;SDS011;4484;48.928;10.066;2022-07-22T03:06:40;3.97;;;3.57;;
8895;SDS011;4484;48.928;10.066;2022-07-22T03:09:15;3.73;;;3.43;;
8895;SDS011;4484;48.928;10.066;2022-07-22T03:11:43;3.73;;;3.43;;
8895;SDS011;4484;48.928;10.066;2022-07-22T03:14:11;4.87;;;4.30;;
8895;SDS011;4484;48.928;10.066;2022-07-22T03:16:38;5.07;;;4.30;;
8895;SDS011;4484;48.928;10.066;2022-07-22T03:19:05;3.77;;;3.47;;
8895;SDS011;4484;48.928;10.066;2022-07-22T03:21:32;4.20;;;3.80;;
8895;SDS011;4484;48.928;10.066;2022-07-22T03:24:00;4.30;;;3.63;;
8895;SDS011;4484;48.928;10.066;2022-07-22T03:26:26;4.17;;;3.77;;
8895;SDS011;4484;48.928;10.066;2022-07-22T03:28:53;4.03;;;3.67;;
8895;SDS011;4484;48.928;10.066;2022-07-22T03:31:21;3.93;;;3.40;;
8895;SDS011;4484;48.928;10.066;2022-07-22T03:33:49;4.10;;;3.70;;
8895;SDS011;4484;48.928;10.066;2022-07-22T03:36:16;3.87;;;3.40;;
8895;SDS011;4484;48.928;10.066;2022-07-22T03:38:46;3.70;;;3.40;;
8895;SDS011;4484;48.928;10.066;2022-07-22T03:41:12;4.53;;;4.03;;
8895;SDS011;4484;48.928;10.066;2022-07-22T03:43:40;4.13;;;3.73;;
8895;SDS011;4484;48.928;10.066;2022-07-22T03:46:07;4.00;;;3.60;;
8895;SDS011;4484;48.928;10.066;2022-07-22T03:48:35;3.80;;;3.50;;
8895;SDS011;4484;48.928;10.066;2022-07-22T03:51:02;5.10;;;4.60;;
8895;SDS011;4484;48.928;10.066;2022-07-22T03:53:29;4.20;;;3.80;;
8895;SDS011;4484;48.928;10.066;2022-07-22T03:55:56;4.17;;;3.83;;
8895;SDS011;4484;48.928;10.066;2022-07-22T03:58:23;4.53;;;3.73;;
8895;SDS011;4484;48.928;10.066;2022-07-22T04:00:50;4.37;;;3.97;;
8895;SDS011;4484;48.928;10.066;2022-07-22T04:03:18;4.47;;;4.07;;
8895;SDS011;4484;48.928;10.066;2022-07-22T04:06:04;6.17;;;5.07;;
8895;SDS011;4484;48.928;10.066;2022-07-22T04:08:47;5.93;;;5.07;;
8895;SDS011;4484;48.928;10.066;2022-07-22T04:11:16;7.23;;;5.30;;
8895;SDS011;4484;48.928;10.066;2022-07-22T04:13:43;4.73;;;4.27;;
8895;SDS011;4484;48.928;10.066;2022-07-22T04:16:09;4.70;;;4.30;;
8895;SDS011;4484;48.928;10.066;2022-07-22T04:18:43;5.43;;;4.37;;
8895;SDS011;4484;48.928;10.066;2022-07-22T04:21:10;5.23;;;4.50;;
8895;SDS011;4484;48.928;10.066;2022-07-22T04:23:48;4.30;;;3.90;;
8895;SDS011;4484;48.928;10.066;2022-07-22T04:26:21;4.60;;;4.20;;
8895;SDS011;4484;48.928;10.066;2022-07-22T04:28:48;4.67;;;4.27;;
8895;SDS011;4484;48.928;10.066;2022-07-22T04:31:16;3.77;;;3.37;;
8895;SDS011;4484;48.928;10.066;2022-07-22T04:33:45;4.63;;;4.03;;
8895;SDS011;4484;48.928;10.066;2022-07-22T04:36:13;4.17;;;3.77;;
8895;SDS011;4484;48.928;10.066;2022-07-22T04:38:41;4.10;;;3.43;;
8895;SDS011;4484;48.928;10.066;2022-07-22T04:41:09;4.33;;;3.93;;
8895;SDS011;4484;48.928;10.066;2022-07-22T04:43:36;4.13;;;3.73;;
8895;SDS011;4484;48.928;10.066;2022-07-22T04:46:05;4.10;;;3.70;;
8895;SDS011;4484;48.928;10.066;2022-07-22T04:48:36;4.33;;;3.93;;
8895;SDS011;4484;48.928;10.066;2022-07-22T04:51:03;4.33;;;3.93;;
8895;SDS011;4484;48.928;10.066;2022-07-22T04:53:31;4.63;;;4.23;;
8895;SDS011;4484;48.928;10.066;2022-07-22T04:56:13;4.70;;;4.30;;
8895;SDS011;4484;48.928;10.066;2022-07-22T04:58:40;4.70;;;4.30;;
8895;SDS011;4484;48.928;10.066;2022-07-22T05:01:07;4.50;;;4.10;;
8895;SDS011;4484;48.928;10.066;2022-07-22T05:03:37;7.70;;;4.50;;
8895;SDS011;4484;48.928;10.066;2022-07-22T05:06:07;5.70;;;5.20;;
8895;SDS011;4484;48.928;10.066;2022-07-22T05:08:38;5.23;;;4.73;;
8895;SDS011;4484;48.928;10.066;2022-07-22T05:11:06;5.60;;;4.80;;
8895;SDS011;4484;48.928;10.066;2022-07-22T05:13:34;5.90;;;5.30;;
8895;SDS011;4484;48.928;10.066;2022-07-22T05:16:04;6.00;;;5.43;;
8895;SDS011;4484;48.928;10.066;2022-07-22T05:18:34;6.00;;;5.40;;
8895;SDS011;4484;48.928;10.066;2022-07-22T05:21:01;5.63;;;5.13;;
8895;SDS011;4484;48.928;10.066;2022-07-22T05:23:29;5.43;;;4.93;;
8895;SDS011;4484;48.928;10.066;2022-07-22T05:25:56;6.67;;;5.97;;
8895;SDS011;4484;48.928;10.066;2022-07-22T05:28:24;7.63;;;6.83;;
8895;SDS011;4484;48.928;10.066;2022-07-22T05:30:51;11.57;;;7.63;;
8895;SDS011;4484;48.928;10.066;2022-07-22T05:33:19;8.27;;;6.97;;
8895;SDS011;4484;48.928;10.066;2022-07-22T05:36:04;7.93;;;6.67;;
8895;SDS011;4484;48.928;10.066;2022-07-22T05:38:36;7.43;;;6.73;;
8895;SDS011;4484;48.928;10.066;2022-07-22T05:41:04;8.43;;;7.57;;
8895;SDS011;4484;48.928;10.066;2022-07-22T05:43:31;11.00;;;7.90;;
8895;SDS011;4484;48.928;10.066;2022-07-22T05:45:59;9.13;;;7.40;;
8895;SDS011;4484;48.928;10.066;2022-07-22T05:48:29;7.03;;;6.33;;
8895;SDS011;4484;48.928;10.066;2022-07-22T05:50:56;6.63;;;6.03;;
8895;SDS011;4484;48.928;10.066;2022-07-22T05:53:24;7.10;;;6.40;;
8895;SDS011;4484;48.928;10.066;2022-07-22T05:55:52;10.17;;;7.80;;
8895;SDS011;4484;48.928;10.066;2022-07-22T05:58:19;8.40;;;7.60;;
8895;SDS011;4484;48.928;10.066;2022-07-22T06:00:45;11.93;;;8.07;;
8895;SDS011;4484;48.928;10.066;2022-07-22T06:03:12;8.63;;;7.60;;
8895;SDS011;4484;48.928;10.066;2022-07-22T06:05:45;9.00;;;8.10;;
8895;SDS011;4484;48.928;10.066;2022-07-22T06:08:12;11.07;;;8.73;;
8895;SDS011;4484;48.928;10.066;2022-07-22T06:10:42;9.30;;;8.30;;
8895;SDS011;4484;48.928;10.066;2022-07-22T06:13:09;8.60;;;7.70;;
8895;SDS011;4484;48.928;10.066;2022-07-22T06:15:38;8.20;;;7.37;;
8895;SDS011;4484;48.928;10.066;2022-07-22T06:18:05;8.10;;;7.10;;
8895;SDS011;4484;48.928;10.066;2022-07-22T06:20:32;9.17;;;7.27;;
8895;SDS011;4484;48.928;10.066;2022-07-22T06:22:59;9.77;;;7.97;;
8895;SDS011;4484;48.928;10.066;2022-07-22T06:25:26;9.63;;;8.10;;
8895;SDS011;4484;48.928;10.066;2022-07-22T06:28:13;8.77;;;7.47;;
8895;SDS011;4484;48.928;10.066;2022-07-22T06:30:40;9.07;;;7.30;;
8895;SDS011;4484;48.928;10.066;2022-07-22T06:33:07;7.50;;;6.77;;
8895;SDS011;4484;48.928;10.066;2022-07-22T06:35:37;10.73;;;7.23;;
8895;SDS011;4484;48.928;10.066;2022-07-22T06:38:05;10.60;;;7.83;;
8895;SDS011;4484;48.928;10.066;2022-07-22T06:40:52;8.90;;;7.13;;
8895;SDS011;4484;48.928;10.066;2022-07-22T06:43:36;10.87;;;7.47;;
8895;SDS011;4484;48.928;10.066;2022-07-22T06:46:22;8.33;;;7.50;;
8895;SDS011;4484;48.928;10.066;2022-07-22T06:48:51;7.20;;;6.50;;
8895;SDS011;4484;48.928;10.066;2022-07-22T06:51:19;9.00;;;6.90;;
8895;SDS011;4484;48.928;10.066;2022-07-22T06:53:53;7.13;;;6.43;;
8895;SDS011;4484;48.928;10.066;2022-07-22T06:56:20;8.40;;;7.00;;
8895;SDS011;4484;48.928;10.066;2022-07-22T06:58:47;7.83;;;6.87;;
8895;SDS011;4484;48.928;10.066;2022-07-22T07:01:14;6.73;;;6.03;;
8895;SDS011;4484;48.928;10.066;2022-07-22T07:04:01;6.47;;;5.87;;
8895;SDS011;4484;48.928;10.066;2022-07-22T07:06:28;6.73;;;6.10;;
8895;SDS011;4484;48.928;10.066;2022-07-22T07:09:12;7.03;;;5.37;;
8895;SDS011;4484;48.928;10.066;2022-07-22T07:11:43;7.30;;;6.20;;
8895;SDS011;4484;48.928;10.066;2022-07-22T07:14:25;6.22;;;5.63;;
8895;SDS011;4484;48.928;10.066;2022-07-22T07:16:52;6.88;;;6.00;;
8895;SDS011;4484;48.928;10.066;2022-07-22T07:19:20;6.88;;;6.28;;
8895;SDS011;4484;48.928;10.066;2022-07-22T07:21:47;8.80;;;5.53;;
8895;SDS011;4484;48.928;10.066;2022-07-22T07:24:15;6.95;;;5.65;;
8895;SDS011;4484;48.928;10.066;2022-07-22T07:26:42;7.20;;;5.72;;
8895;SDS011;4484;48.928;10.066;2022-07-22T07:29:09;7.45;;;5.03;;
8895;SDS011;4484;48.928;10.066;2022-07-22T07:31:39;9.90;;;5.90;;
8895;SDS011;4484;48.928;10.066;2022-07-22T07:34:12;9.43;;;6.03;;
8895;SDS011;4484;48.928;10.066;2022-07-22T07:36:39;7.07;;;5.90;;
8895;SDS011;4484;48.928;10.066;2022-07-22T07:39:06;9.00;;;5.90;;
8895;SDS011;4484;48.928;10.066;2022-07-22T07:41:33;7.22;;;6.43;;
8895;SDS011;4484;48.928;10.066;2022-07-22T07:44:00;8.45;;;6.05;;
8895;SDS011;4484;48.928;10.066;2022-07-22T07:46:29;6.32;;;5.43;;
8895;SDS011;4484;48.928;10.066;2022-07-22T07:48:57;7.95;;;6.32;;
8895;SDS011;4484;48.928;10.066;2022-07-22T07:51:25;6.93;;;5.40;;
8895;SDS011;4484;48.928;10.066;2022-07-22T07:53:52;8.63;;;5.50;;
8895;SDS011;4484;48.928;10.066;2022-07-22T07:56:30;7.65;;;5.30;;
8895;SDS011;4484;48.928;10.066;2022-07-22T07:58:57;9.05;;;5.30;;
8895;SDS011;4484;48.928;10.066;2022-07-22T08:01:45;7.00;;;5.53;;
8895;SDS011;4484;48.928;10.066;2022-07-22T08:04:25;5.28;;;4.80;;
8895;SDS011;4484;48.928;10.066;2022-07-22T08:07:11;6.22;;;5.40;;
8895;SDS011;4484;48.928;10.066;2022-07-22T08:09:41;6.15;;;5.43;;
8895;SDS011;4484;48.928;10.066;2022-07-22T08:12:16;5.68;;;5.05;;
8895;SDS011;4484;48.928;10.066;2022-07-22T08:14:59;7.25;;;5.15;;
8895;SDS011;4484;48.928;10.066;2022-07-22T08:17:45;6.45;;;4.72;;
8895;SDS011;4484;48.928;10.066;2022-07-22T08:20:12;5.50;;;4.32;;
8895;SDS011;4484;48.928;10.066;2022-07-22T08:22:47;6.03;;;4.70;;
8895;SDS011;4484;48.928;10.066;2022-07-22T08:25:14;5.82;;;4.80;;
8895;SDS011;4484;48.928;10.066;2022-07-22T08:27:41;5.55;;;5.05;;
8895;SDS011;4484;48.928;10.066;2022-07-22T08:30:08;5.53;;;4.80;;
8895;SDS011;4484;48.928;10.066;2022-07-22T08:32:36;7.00;;;4.80;;
8895;SDS011;4484;48.928;10.066;2022-07-22T08:35:05;5.18;;;4.57;;
8895;SDS011;4484;48.928;10.066;2022-07-22T08:37:33;4.40;;;4.00;;
8895;SDS011;4484;48.928;10.066;2022-07-22T08:40:00;5.28;;;4.35;;
8895;SDS011;4484;48.928;10.066;2022-07-22T08:42:28;4.70;;;4.30;;
8895;SDS011;4484;48.928;10.066;2022-07-22T08:44:55;4.93;;;4.32;;
8895;SDS011;4484;48.928;10.066;2022-07-22T08:47:31;4.93;;;4.43;;
8895;SDS011;4484;48.928;10.066;2022-07-22T08:50:33;5.07;;;4.57;;
8895;SDS011;4484;48.928;10.066;2022-07-22T08:53:12;4.93;;;4.40;;
8895;SDS011;4484;48.928;10.066;2022-07-22T08:55:41;5.00;;;4.55;;
8895;SDS011;4484;48.928;10.066;2022-07-22T08:58:13;4.80;;;4.22;;
8895;SDS011;4484;48.928;10.066;2022-07-22T09:00:41;5.72;;;4.90;;
8895;SDS011;4484;48.928;10.066;2022-07-22T09:05:51;6.20;;;4.95;;
8895;SDS011;4484;48.928;10.066;2022-07-22T09:08:20;4.80;;;4.30;;
8895;SDS011;4484;48.928;10.066;2022-07-22T09:10:58;6.38;;;4.38;;
8895;SDS011;4484;48.928;10.066;2022-07-22T09:13:48;6.65;;;4.47;;
8895;SDS011;4484;48.928;10.066;2022-07-22T09:19:30;4.45;;;4.05;;
8895;SDS011;4484;48.928;10.066;2022-07-22T09:28:17;6.72;;;4.22;;
8895;SDS011;4484;48.928;10.066;2022-07-22T09:31:06;14.80;;;4.90;;
8895;SDS011;4484;48.928;10.066;2022-07-22T09:33:39;5.30;;;4.40;;
8895;SDS011;4484;48.928;10.066;2022-07-22T09:36:20;5.32;;;4.70;;
8895;SDS011;4484;48.928;10.066;2022-07-22T09:38:49;5.38;;;4.28;;
8895;SDS011;4484;48.928;10.066;2022-07-22T09:41:16;6.53;;;4.63;;
8895;SDS011;4484;48.928;10.066;2022-07-22T09:43:44;4.75;;;4.35;;
8895;SDS011;4484;48.928;10.066;2022-07-22T09:46:12;5.28;;;4.57;;
8895;SDS011;4484;48.928;10.066;2022-07-22T09:48:58;4.80;;;4.05;;
8895;SDS011;4484;48.928;10.066;2022-07-22T09:51:36;4.15;;;3.75;;
8895;SDS011;4484;48.928;10.066;2022-07-22T09:54:15;5.40;;;4.10;;
8895;SDS011;4484;48.928;10.066;2022-07-22T09:56:44;6.57;;;4.18;;
8895;SDS011;4484;48.928;10.066;2022-07-22T09:59:15;5.40;;;3.97;;
8895;SDS011;4484;48.928;10.066;2022-07-22T10:01:50;5.22;;;4.30;;
8895;SDS011;4484;48.928;10.066;2022-07-22T10:04:23;5.68;;;4.47;;
8895;SDS011;4484;48.928;10.066;2022-07-22T10:06:52;4.65;;;4.20;;
8895;SDS011;4484;48.928;10.066;2022-07-22T10:09:26;5.40;;;4.53;;
8895;SDS011;4484;48.928;10.066;2022-07-22T10:11:55;5.57;;;4.03;;
8895;SDS011;4484;48.928;10.066;2022-07-22T10:14:25;3.97;;;3.60;;
8895;SDS011;4484;48.928;10.066;2022-07-22T10:16:57;5.63;;;4.18;;
8895;SDS011;4484;48.928;10.066;2022-07-22T10:19:32;5.05;;;4.22;;
8895;SDS011;4484;48.928;10.066;2022-07-22T10:21:59;6.07;;;4.82;;
8895;SDS011;4484;48.928;10.066;2022-07-22T10:24:26;7.70;;;4.78;;
8895;SDS011;4484;48.928;10.066;2022-07-22T10:26:57;7.05;;;4.10;;
8895;SDS011;4484;48.928;10.066;2022-07-22T10:34:44;4.70;;;4.18;;
8895;SDS011;4484;48.928;10.066;2022-07-22T10:45:26;4.25;;;3.85;;
8895;SDS011;4484;48.928;10.066;2022-07-22T10:48:00;4.40;;;4.00;;
8895;SDS011;4484;48.928;10.066;2022-07-22T10:53:02;4.90;;;4.25;;
8895;SDS011;4484;48.928;10.066;2022-07-22T10:55:29;5.03;;;4.03;;
8895;SDS011;4484;48.928;10.066;2022-07-22T10:57:56;4.30;;;3.90;;
8895;SDS011;4484;48.928;10.066;2022-07-22T11:00:23;5.30;;;4.30;;
8895;SDS011;4484;48.928;10.066;2022-07-22T11:02:50;5.25;;;4.15;;
8895;SDS011;4484;48.928;10.066;2022-07-22T11:05:27;4.28;;;3.97;;
8895;SDS011;4484;48.928;10.066;2022-07-22T11:07:56;5.93;;;4.43;;
8895;SDS011;4484;48.928;10.066;2022-07-22T11:10:23;4.82;;;4.30;;
8895;SDS011;4484;48.928;10.066;2022-07-22T11:12:50;5.95;;;3.92;;
8895;SDS011;4484;48.928;10.066;2022-07-22T11:15:17;4.47;;;4.07;;
8895;SDS011;4484;48.928;10.066;2022-07-22T11:17:44;4.80;;;4.40;;
8895;SDS011;4484;48.928;10.066;2022-07-22T11:20:12;5.40;;;4.47;;
8895;SDS011;4484;48.928;10.066;2022-07-22T11:22:42;6.38;;;4.53;;
8895;SDS011;4484;48.928;10.066;2022-07-22T11:25:13;4.93;;;4.10;;
8895;SDS011;4484;48.928;10.066;2022-07-22T11:27:48;6.20;;;4.82;;
8895;SDS011;4484;48.928;10.066;2022-07-22T11:30:18;4.03;;;3.70;;
8895;SDS011;4484;48.928;10.066;2022-07-22T11:32:45;4.55;;;4.15;;
8895;SDS011;4484;48.928;10.066;2022-07-22T11:35:14;4.45;;;3.80;;
8895;SDS011;4484;48.928;10.066;2022-07-22T11:37:40;4.80;;;4.30;;
8895;SDS011;4484;48.928;10.066;2022-07-22T11:40:08;6.03;;;4.22;;
8895;SDS011;4484;48.928;10.066;2022-07-22T11:42:36;4.15;;;3.75;;
8895;SDS011;4484;48.928;10.066;2022-07-22T11:45:04;4.68;;;4.07;;
8895;SDS011;4484;48.928;10.066;2022-07-22T11:47:32;4.68;;;4.25;;
8895;SDS011;4484;48.928;10.066;2022-07-22T11:50:00;6.05;;;4.10;;
8895;SDS011;4484;48.928;10.066;2022-07-22T11:52:27;5.15;;;4.65;;
8895;SDS011;4484;48.928;10.066;2022-07-22T11:54:54;4.38;;;3.97;;
8895;SDS011;4484;48.928;10.066;2022-07-22T11:57:21;4.05;;;3.72;;
8895;SDS011;4484;48.928;10.066;2022-07-22T11:59:47;6.60;;;4.50;;
8895;SDS011;4484;48.928;10.066;2022-07-22T12:02:14;5.32;;;4.30;;
8895;SDS011;4484;48.928;10.066;2022-07-22T12:04:42;5.18;;;4.68;;
8895;SDS011;4484;48.928;10.066;2022-07-22T12:07:12;4.68;;;4.13;;
8895;SDS011;4484;48.928;10.066;2022-07-22T12:09:39;4.80;;;4.40;;
8895;SDS011;4484;48.928;10.066;2022-07-22T12:12:08;4.25;;;3.85;;
8895;SDS011;4484;48.928;10.066;2022-07-22T12:14:35;4.15;;;3.75;;
8895;SDS011;4484;48.928;10.066;2022-07-22T12:19:37;4.95;;;3.80;;
8895;SDS011;4484;48.928;10.066;2022-07-22T12:22:06;3.92;;;3.60;;
8895;SDS011;4484;48.928;10.066;2022-07-22T12:24:36;4.38;;;4.03;;
8895;SDS011;4484;48.928;10.066;2022-07-22T12:27:08;6.25;;;3.95;;
8895;SDS011;4484;48.928;10.066;2022-07-22T12:32:07;5.38;;;4.30;;
8895;SDS011;4484;48.928;10.066;2022-07-22T12:35:03;4.70;;;4.07;;
8895;SDS011;4484;48.928;10.066;2022-07-22T12:37:34;4.50;;;3.90;;
8895;SDS011;4484;48.928;10.066;2022-07-22T12:42:41;4.15;;;3.85;;
8895;SDS011;4484;48.928;10.066;2022-07-22T12:45:10;6.63;;;3.83;;
8895;SDS011;4484;48.928;10.066;2022-07-22T12:47:43;5.10;;;4.35;;
8895;SDS011;4484;48.928;10.066;2022-07-22T12:52:55;5.03;;;4.18;;
8895;SDS011;4484;48.928;10.066;2022-07-22T12:58:12;5.32;;;4.63;;
8895;SDS011;4484;48.928;10.066;2022-07-22T13:00:46;4.32;;;3.97;;
8895;SDS011;4484;48.928;10.066;2022-07-22T13:03:14;4.95;;;4.25;;
8895;SDS011;4484;48.928;10.066;2022-07-22T13:05:48;4.47;;;3.88;;
8895;SDS011;4484;48.928;10.066;2022-07-22T13:08:17;4.32;;;3.92;;
8895;SDS011;4484;48.928;10.066;2022-07-22T13:10:47;4.20;;;3.80;;
8895;SDS011;4484;48.928;10.066;2022-07-22T13:13:18;5.43;;;4.55;;
8895;SDS011;4484;48.928;10.066;2022-07-22T13:15:46;4.43;;;4.03;;
8895;SDS011;4484;48.928;10.066;2022-07-22T13:18:15;4.40;;;4.00;;
8895;SDS011;4484;48.928;10.066;2022-07-22T13:20:43;5.43;;;4.20;;
8895;SDS011;4484;48.928;10.066;2022-07-22T13:23:10;4.15;;;3.75;;
8895;SDS011;4484;48.928;10.066;2022-07-22T13:25:37;4.68;;;3.80;;
8895;SDS011;4484;48.928;10.066;2022-07-22T13:28:04;4.47;;;4.07;;
8895;SDS011;4484;48.928;10.066;2022-07-22T13:30:31;5.10;;;3.70;;
8895;SDS011;4484;48.928;10.066;2022-07-22T13:32:58;6.18;;;3.85;;
8895;SDS011;4484;48.928;10.066;2022-07-22T13:35:25;3.85;;;3.55;;
8895;SDS011;4484;48.928;10.066;2022-07-22T13:37:52;3.83;;;3.47;;
8895;SDS011;4484;48.928;10.066;2022-07-22T13:40:19;4.80;;;3.70;;
8895;SDS011;4484;48.928;10.066;2022-07-22T13:42:46;5.10;;;3.90;;
8895;SDS011;4484;48.928;10.066;2022-07-22T13:45:12;4.32;;;3.95;;
8895;SDS011;4484;48.928;10.066;2022-07-22T13:47:40;6.00;;;4.00;;
8895;SDS011;4484;48.928;10.066;2022-07-22T13:50:07;4.20;;;3.90;;
8895;SDS011;4484;48.928;10.066;2022-07-22T13:52:35;3.80;;;3.47;;
8895;SDS011;4484;48.928;10.066;2022-07-22T13:55:02;4.20;;;3.75;;
8895;SDS011;4484;48.928;10.066;2022-07-22T13:57:29;4.68;;;4.03;;
8895;SDS011;4484;48.928;10.066;2022-07-22T13:59:56;4.00;;;3.70;;
8895;SDS011;4484;48.928;10.066;2022-07-22T14:02:23;3.70;;;3.40;;
8895;SDS011;4484;48.928;10.066;2022-07-22T14:04:50;4.47;;;4.07;;
8895;SDS011;4484;48.928;10.066;2022-07-22T14:07:17;4.55;;;4.15;;
8895;SDS011;4484;48.928;10.066;2022-07-22T14:09:44;5.57;;;3.70;;
8895;SDS011;4484;48.928;10.066;2022-07-22T14:12:11;3.92;;;3.53;;
8895;SDS011;4484;48.928;10.066;2022-07-22T14:14:38;5.03;;;4.03;;
8895;SDS011;4484;48.928;10.066;2022-07-22T14:17:05;3.80;;;3.50;;
8895;SDS011;4484;48.928;10.066;2022-07-22T14:19:33;4.25;;;3.78;;
8895;SDS011;4484;48.928;10.066;2022-07-22T14:22:01;4.38;;;3.85;;
8895;SDS011;4484;48.928;10.066;2022-07-22T14:24:27;8.30;;;4.40;;
8895;SDS011;4484;48.928;10.066;2022-07-22T14:26:55;4.43;;;4.03;;
8895;SDS011;4484;48.928;10.066;2022-07-22T14:29:29;6.10;;;3.80;;
8895;SDS011;4484;48.928;10.066;2022-07-22T14:31:56;4.07;;;3.75;;
8895;SDS011;4484;48.928;10.066;2022-07-22T14:34:24;4.25;;;3.85;;
8895;SDS011;4484;48.928;10.066;2022-07-22T14:36:51;4.10;;;3.75;;
8895;SDS011;4484;48.928;10.066;2022-07-22T14:39:18;4.28;;;3.85;;
8895;SDS011;4484;48.928;10.066;2022-07-22T14:41:45;4.57;;;3.92;;
8895;SDS011;4484;48.928;10.066;2022-07-22T14:44:13;4.20;;;3.80;;
8895;SDS011;4484;48.928;10.066;2022-07-22T14:46:40;4.78;;;3.75;;
8895;SDS011;4484;48.928;10.066;2022-07-22T14:49:07;4.32;;;3.92;;
8895;SDS011;4484;48.928;10.066;2022-07-22T14:51:41;5.55;;;4.28;;
8895;SDS011;4484;48.928;10.066;2022-07-22T14:54:08;7.22;;;3.80;;
8895;SDS011;4484;48.928;10.066;2022-07-22T14:56:38;4.50;;;4.13;;
8895;SDS011;4484;48.928;10.066;2022-07-22T14:59:05;4.80;;;3.85;;
8895;SDS011;4484;48.928;10.066;2022-07-22T15:01:32;4.47;;;4.00;;
8895;SDS011;4484;48.928;10.066;2022-07-22T15:03:59;4.15;;;3.75;;
8895;SDS011;4484;48.928;10.066;2022-07-22T15:06:27;9.65;;;4.20;;
8895;SDS011;4484;48.928;10.066;2022-07-22T15:08:54;4.43;;;4.10;;
8895;SDS011;4484;48.928;10.066;2022-07-22T15:11:21;5.47;;;4.35;;
8895;SDS011;4484;48.928;10.066;2022-07-22T15:13:47;6.25;;;3.60;;
8895;SDS011;4484;48.928;10.066;2022-07-22T15:16:14;3.58;;;3.30;;
8895;SDS011;4484;48.928;10.066;2022-07-22T15:18:42;4.22;;;3.80;;
8895;SDS011;4484;48.928;10.066;2022-07-22T15:21:09;3.90;;;3.60;;
8895;SDS011;4484;48.928;10.066;2022-07-22T15:23:37;4.30;;;3.90;;
8895;SDS011;4484;48.928;10.066;2022-07-22T15:26:04;4.82;;;4.00;;
8895;SDS011;4484;48.928;10.066;2022-07-22T15:28:31;4.05;;;3.67;;
8895;SDS011;4484;48.928;10.066;2022-07-22T15:31:00;3.35;;;3.15;;
8895;SDS011;4484;48.928;10.066;2022-07-22T15:33:28;4.00;;;3.70;;
8895;SDS011;4484;48.928;10.066;2022-07-22T15:36:07;4.25;;;3.90;;
8895;SDS011;4484;48.928;10.066;2022-07-22T15:38:36;3.83;;;3.50;;
8895;SDS011;4484;48.928;10.066;2022-07-22T15:41:04;3.80;;;3.30;;
8895;SDS011;4484;48.928;10.066;2022-07-22T15:43:32;4.22;;;3.90;;
8895;SDS011;4484;48.928;10.066;2022-07-22T15:45:59;4.13;;;3.70;;
8895;SDS011;4484;48.928;10.066;2022-07-22T15:48:27;4.30;;;3.90;;
8895;SDS011;4484;48.928;10.066;2022-07-22T15:50:55;4.65;;;3.67;;
8895;SDS011;4484;48.928;10.066;2022-07-22T15:53:28;5.72;;;3.70;;
8895;SDS011;4484;48.928;10.066;2022-07-22T15:55:55;5.95;;;3.88;;